Time;durP1;ratioP1;P1;durP2;ratioP2;P2;SDS_P1;SDS_P2;PMS_P1;PMS_P2;Temp;Humidity;BMP_temperature;BMP_pressure;BME280_temperature;BME280_humidity;BME280_pressure;Samples;Min_cycle;Max_cycle;Signal;HPM_P1;HPM_P2
2023/10/09 03:31:19;;;;;;;9.82;5.47;;;11.70;99.90;;;;;;5780960;23;20825;-95
2023/10/09 03:33:47;;;;;;;9.02;3.38;;;11.70;99.90;;;;;;4948915;28;20220;-67
2023/10/09 03:36:16;;;;;;;5.75;3.03;;;11.70;99.90;;;;;;4952141;28;20208;-67
2023/10/09 03:38:44;;;;;;;7.47;3.70;;;11.70;99.90;;;;;;4952053;28;20259;-66
2023/10/09 03:41:12;;;;;;;3.80;2.97;;;11.70;99.90;;;;;;4960313;28;20231;-66
2023/10/09 03:43:40;;;;;;;8.75;2.50;;;11.70;99.90;;;;;;4971486;28;20294;-66
2023/10/09 03:46:15;;;;;;;6.60;2.53;;;11.70;99.90;;;;;;4964310;28;20318;-67
2023/10/09 03:48:46;;;;;;;6.93;3.25;;;11.80;99.90;;;;;;4971423;28;20200;-66
2023/10/09 03:51:15;;;;;;;8.27;3.13;;;11.70;99.90;;;;;;4971542;28;20248;-66
2023/10/09 03:53:42;;;;;;;6.95;2.67;;;11.80;99.90;;;;;;4971222;28;20303;-66
2023/10/09 03:56:12;;;;;;;6.05;2.97;;;11.80;99.90;;;;;;4971230;28;20212;-66
2023/10/09 03:58:42;;;;;;;5.25;3.45;;;11.80;99.90;;;;;;4971862;28;20212;-67
2023/10/09 04:01:16;;;;;;;4.90;2.72;;;11.80;99.90;;;;;;4964750;28;20231;-66
2023/10/09 04:03:45;;;;;;;5.85;2.75;;;11.80;99.90;;;;;;4971225;28;20204;-67
2023/10/09 04:06:12;;;;;;;5.55;3.13;;;11.80;99.90;;;;;;4971006;28;20224;-66
2023/10/09 04:08:46;;;;;;;4.35;2.75;;;11.80;99.90;;;;;;4971549;28;20219;-66
2023/10/09 04:11:17;;;;;;;4.35;2.42;;;11.80;99.90;;;;;;4966513;28;20293;-67
2023/10/09 04:13:45;;;;;;;6.97;3.30;;;11.80;99.90;;;;;;4974747;28;20669;-66
2023/10/09 04:16:33;;;;;;;4.80;3.03;;;11.80;99.90;;;;;;4974576;28;20643;-66
2023/10/09 04:19:06;;;;;;;5.63;3.08;;;11.80;99.90;;;;;;4974591;28;20573;-66
2023/10/09 04:21:36;;;;;;;6.80;2.75;;;11.80;99.90;;;;;;4974942;28;20306;-66
2023/10/09 04:26:53;;;;;;;10.90;5.03;;;11.80;99.90;;;;;;4974008;28;20403;-66
2023/10/09 04:29:26;;;;;;;10.45;3.13;;;11.80;99.90;;;;;;4974543;28;20211;-66
2023/10/09 04:31:54;;;;;;;7.85;3.30;;;11.80;99.90;;;;;;4974159;28;20236;-66
2023/10/09 04:34:22;;;;;;;9.05;3.22;;;11.70;99.90;;;;;;4974603;28;20218;-66
2023/10/09 04:36:49;;;;;;;5.28;3.83;;;11.80;99.90;;;;;;4973888;28;20559;-66
2023/10/09 04:44:59;;;;;;;5.93;3.10;;;11.70;99.90;;;;;;4973395;28;20546;-67
2023/10/09 04:47:35;;;;;;;7.18;3.92;;;11.70;99.90;;;;;;4973857;28;20205;-66
2023/10/09 04:50:11;;;;;;;7.47;4.38;;;11.70;99.90;;;;;;4974170;28;20259;-66
2023/10/09 04:52:52;;;;;;;3.95;2.85;;;11.70;99.90;;;;;;4974372;28;20215;-66
2023/10/09 04:55:24;;;;;;;7.57;3.70;;;11.70;99.90;;;;;;4973875;28;20202;-67
2023/10/09 04:58:02;;;;;;;6.30;3.17;;;11.70;99.90;;;;;;4973622;28;20211;-66
2023/10/09 05:03:25;;;;;;;6.95;3.30;;;11.70;99.90;;;;;;4974196;28;20211;-67
2023/10/09 05:05:59;;;;;;;7.35;3.20;;;11.70;99.90;;;;;;4973113;28;20342;-67
2023/10/09 05:08:29;;;;;;;4.97;3.60;;;11.70;99.90;;;;;;4974027;28;20207;-66
2023/10/09 05:11:05;;;;;;;7.38;2.85;;;11.70;99.90;;;;;;4973437;28;20844;-66
2023/10/09 05:13:43;;;;;;;6.07;3.55;;;11.70;99.90;;;;;;4973892;28;20199;-67
2023/10/09 05:16:15;;;;;;;7.05;3.30;;;11.70;99.90;;;;;;4973714;28;20206;-66
2023/10/09 05:18:42;;;;;;;4.72;2.63;;;11.70;99.90;;;;;;4973892;28;20204;-66
2023/10/09 05:24:15;;;;;;;4.25;2.55;;;11.70;99.90;;;;;;4973073;28;20680;-66
2023/10/09 05:26:50;;;;;;;4.53;3.25;;;11.80;99.90;;;;;;4973078;28;20219;-66
2023/10/09 05:29:24;;;;;;;5.82;3.25;;;11.80;99.90;;;;;;4973754;28;20235;-66
2023/10/09 05:31:56;;;;;;;8.57;4.85;;;11.80;99.90;;;;;;4973293;28;20228;-66
2023/10/09 05:34:23;;;;;;;5.65;3.60;;;11.80;99.90;;;;;;4973638;28;20688;-66
2023/10/09 05:36:50;;;;;;;7.50;3.05;;;11.90;99.90;;;;;;4972954;28;20204;-66
2023/10/09 05:39:29;;;;;;;4.63;2.85;;;11.90;99.90;;;;;;4973473;28;20204;-66
2023/10/09 05:41:59;;;;;;;5.50;3.00;;;11.90;99.90;;;;;;4973192;28;20819;-66
2023/10/09 05:50:34;;;;;;;3.73;2.80;;;12.10;99.90;;;;;;4931183;28;20713;-66
2023/10/09 05:53:07;;;;;;;5.00;3.40;;;12.10;99.90;;;;;;4973028;28;20876;-66
2023/10/09 05:57:09;;;;;;;5.28;3.13;;;12.20;99.90;;;;;;4972712;28;20464;-66
2023/10/09 06:04:15;;;;;;;5.82;2.95;;;12.20;99.90;;;;;;4971795;28;20583;-66
2023/10/09 06:06:45;;;;;;;4.68;2.10;;;12.30;99.90;;;;;;4972344;28;20298;-67
2023/10/09 06:09:49;;;;;;;5.90;2.60;;;12.30;99.90;;;;;;4973227;28;20235;-67
2023/10/09 06:12:33;;;;;;;3.85;2.90;;;12.30;99.90;;;;;;4966264;28;20341;-66
2023/10/09 06:15:18;;;;;;;6.87;3.00;;;12.30;99.90;;;;;;4972322;28;20227;-66
2023/10/09 06:17:50;;;;;;;12.03;3.30;;;12.40;99.90;;;;;;4972657;28;20495;-66
2023/10/09 06:23:15;;;;;;;5.20;2.20;;;12.40;99.90;;;;;;4972097;28;20458;-66
2023/10/09 06:25:50;;;;;;;5.83;2.80;;;12.50;99.90;;;;;;4972131;28;20483;-66
2023/10/09 06:28:19;;;;;;;5.40;2.80;;;12.50;99.90;;;;;;4972597;28;20826;-66
2023/10/09 06:30:47;;;;;;;5.73;2.53;;;12.60;99.90;;;;;;4972457;28;20232;-66
2023/10/09 06:33:29;;;;;;;6.70;3.53;;;12.70;99.90;;;;;;4971937;28;20470;-66
2023/10/09 06:35:56;;;;;;;5.70;4.03;;;12.70;99.90;;;;;;4971662;28;20602;-66
2023/10/09 06:38:22;;;;;;;7.63;3.17;;;12.80;99.90;;;;;;4972506;28;20894;-66
2023/10/09 06:43:47;;;;;;;17.47;3.23;;;12.90;99.90;;;;;;4934854;28;20459;-67
2023/10/09 06:49:19;;;;;;;3.97;2.97;;;13.10;99.90;;;;;;4972035;28;20457;-66
2023/10/09 06:51:47;;;;;;;4.67;2.87;;;13.20;99.90;;;;;;4972124;28;20492;-66
2023/10/09 06:54:16;;;;;;;6.70;2.70;;;13.30;99.90;;;;;;4971875;28;20518;-66
2023/10/09 06:59:41;;;;;;;5.63;2.10;;;13.50;99.90;;;;;;4972161;28;20453;-66
2023/10/09 07:02:25;;;;;;;4.00;2.40;;;13.60;99.90;;;;;;4970843;28;20902;-67
2023/10/09 07:04:54;;;;;;;4.47;2.30;;;13.60;99.90;;;;;;4972038;28;20976;-67
2023/10/09 07:07:24;;;;;;;5.37;2.57;;;13.70;99.90;;;;;;4971472;28;20545;-66
2023/10/09 07:12:44;;;;;;;6.33;2.97;;;13.80;99.90;;;;;;4972196;28;20539;-66
2023/10/09 07:17:53;;;;;;;5.20;2.50;;;13.90;99.90;;;;;;4929145;28;20475;-66
2023/10/09 07:23:13;;;;;;;4.17;2.00;;;14.00;99.90;;;;;;4971577;28;20526;-66
2023/10/09 07:25:54;;;;;;;7.30;2.60;;;14.00;99.90;;;;;;4971495;28;20488;-66
2023/10/09 07:28:42;;;;;;;4.37;2.80;;;14.10;99.90;;;;;;4972024;28;20473;-66
2023/10/09 07:31:23;;;;;;;9.27;2.97;;;14.20;99.90;;;;;;4970502;28;20576;-66
2023/10/09 07:34:06;;;;;;;5.47;2.47;;;14.20;99.90;;;;;;4971817;28;20851;-66
2023/10/09 07:36:37;;;;;;;3.70;2.13;;;14.30;99.90;;;;;;4971673;28;20469;-66
2023/10/09 07:39:13;;;;;;;5.17;3.27;;;14.40;99.90;;;;;;4971490;28;20469;-66
2023/10/09 07:41:45;;;;;;;5.67;2.50;;;14.40;99.90;;;;;;4971725;28;20515;-66
2023/10/09 07:49:38;;;;;;;4.80;2.10;;;14.60;99.90;;;;;;4975182;28;20994;-67
2023/10/09 07:52:06;;;;;;;10.93;2.93;;;14.70;99.90;;;;;;4974566;28;20488;-66
2023/10/09 07:54:32;;;;;;;4.93;2.43;;;14.80;99.90;;;;;;4977269;28;20472;-66
2023/10/09 07:57:08;;;;;;;5.00;2.60;;;14.80;99.90;;;;;;4976461;28;20467;-66
2023/10/09 07:59:41;;;;;;;4.93;2.47;;;14.90;99.90;;;;;;4978393;28;20499;-66
2023/10/09 08:02:13;;;;;;;5.50;1.90;;;15.00;99.90;;;;;;4975077;28;20484;-66
2023/10/09 08:04:48;;;;;;;7.27;2.60;;;15.10;99.90;;;;;;4977070;28;20910;-66
2023/10/09 08:07:25;;;;;;;4.87;2.60;;;15.10;99.90;;;;;;4976344;28;20578;-66
2023/10/09 08:11:35;;;;;;;5.37;2.40;;;15.20;99.90;;;;;;4977225;28;20829;-66
2023/10/09 08:15:26;;;;;;;5.03;2.37;;;15.40;99.90;;;;;;4975656;28;20461;-67
2023/10/09 08:17:54;;;;;;;8.80;3.27;;;15.50;99.90;;;;;;4976566;28;20460;-67
2023/10/09 08:20:24;;;;;;;4.13;2.07;;;15.50;99.90;;;;;;4976484;28;21049;-66
2023/10/09 08:22:52;;;;;;;8.80;3.27;;;15.60;99.90;;;;;;4973038;28;20491;-66
2023/10/09 08:25:31;;;;;;;2.70;1.57;;;15.70;99.90;;;;;;4974171;28;20473;-66
2023/10/09 08:28:28;;;;;;;4.60;2.90;;;15.80;99.90;;;;;;4974477;28;20585;-66
2023/10/09 08:30:56;;;;;;;3.70;2.30;;;15.90;99.90;;;;;;4974256;28;20485;-66
2023/10/09 08:33:40;;;;;;;5.20;2.50;;;16.00;99.90;;;;;;4969741;28;20478;-66
2023/10/09 08:36:09;;;;;;;3.37;2.37;;;16.20;99.90;;;;;;4971618;28;20473;-66
2023/10/09 08:38:35;;;;;;;6.90;2.70;;;16.30;99.90;;;;;;4974637;28;20521;-66
2023/10/09 08:41:16;;;;;;;7.33;2.50;;;16.40;99.90;;;;;;4974069;28;20525;-66
2023/10/09 08:43:51;;;;;;;3.80;2.00;;;16.50;99.90;;;;;;4974327;28;20473;-66
2023/10/09 08:46:21;;;;;;;8.33;3.27;;;16.60;99.90;;;;;;4973591;28;20485;-66
2023/10/09 08:48:49;;;;;;;3.80;2.03;;;16.60;99.90;;;;;;4974190;28;20466;-66
2023/10/09 08:51:18;;;;;;;5.23;2.30;;;16.70;99.90;;;;;;4974049;28;20482;-66
2023/10/09 08:53:45;;;;;;;3.50;2.03;;;16.80;99.90;;;;;;4974421;28;20463;-66
2023/10/09 08:56:15;;;;;;;4.57;2.27;;;16.90;99.90;;;;;;4973148;28;20463;-67
2023/10/09 08:58:42;;;;;;;5.20;2.30;;;17.00;99.90;;;;;;4973866;28;20521;-66
2023/10/09 09:01:11;;;;;;;6.53;3.00;;;17.10;99.90;;;;;;4973934;28;20490;-66
2023/10/09 09:03:44;;;;;;;3.00;2.27;;;17.00;99.90;;;;;;4974358;28;20504;-66
2023/10/09 09:06:11;;;;;;;5.83;2.70;;;17.00;99.90;;;;;;4971157;28;20529;-66
2023/10/09 09:08:38;;;;;;;6.07;2.73;;;17.10;99.90;;;;;;4973892;28;20537;-67
2023/10/09 09:11:12;;;;;;;5.13;2.90;;;17.10;99.90;;;;;;4970548;28;20522;-66
2023/10/09 09:13:41;;;;;;;6.83;2.60;;;17.10;99.90;;;;;;4974207;28;20485;-66
2023/10/09 09:16:18;;;;;;;3.83;1.63;;;17.10;99.90;;;;;;4970498;28;20522;-65
2023/10/09 09:19:00;;;;;;;5.00;2.97;;;17.30;99.90;;;;;;4967677;28;20474;-66
2023/10/09 09:21:27;;;;;;;4.63;3.03;;;17.30;99.90;;;;;;4973428;28;20484;-66
2023/10/09 09:23:56;;;;;;;5.63;2.33;;;17.30;99.90;;;;;;4973539;28;20471;-67
2023/10/09 09:26:37;;;;;;;6.23;3.33;;;17.40;99.90;;;;;;4972919;28;21007;-66
2023/10/09 09:29:08;;;;;;;3.47;1.97;;;17.40;99.90;;;;;;4973609;28;20459;-67
2023/10/09 09:31:38;;;;;;;3.13;2.23;;;17.40;99.90;;;;;;4973335;28;20881;-67
2023/10/09 09:34:16;;;;;;;5.87;2.70;;;17.50;99.90;;;;;;4970155;28;20466;-67
2023/10/09 09:36:56;;;;;;;8.93;2.63;;;17.50;99.90;;;;;;4970189;28;20490;-66
2023/10/09 09:39:27;;;;;;;3.63;2.40;;;17.60;99.90;;;;;;4973165;28;20962;-67
2023/10/09 09:42:03;;;;;;;3.47;2.03;;;17.70;99.90;;;;;;4973429;28;20487;-66
2023/10/09 09:44:33;;;;;;;7.50;3.17;;;17.80;99.90;;;;;;4972870;28;20559;-67
2023/10/09 09:47:01;;;;;;;6.87;2.80;;;17.90;99.90;;;;;;4972780;28;20608;-66
2023/10/09 09:49:32;;;;;;;3.50;2.23;;;18.00;99.90;;;;;;4972596;28;20472;-66
2023/10/09 09:52:02;;;;;;;6.60;2.63;;;18.10;99.90;;;;;;4973265;28;20868;-66
2023/10/09 09:54:33;;;;;;;3.83;2.70;;;18.20;99.90;;;;;;4972699;28;20944;-67
2023/10/09 09:57:08;;;;;;;3.43;2.30;;;18.30;99.90;;;;;;4972532;28;20467;-66
2023/10/09 09:59:49;;;;;;;6.70;2.70;;;18.40;99.90;;;;;;4968930;28;20463;-67
2023/10/09 10:02:22;;;;;;;4.67;3.07;;;18.50;99.90;;;;;;4970550;28;20479;-67
2023/10/09 10:04:56;;;;;;;2.37;1.80;;;18.60;99.90;;;;;;4972984;28;20941;-66
2023/10/09 10:07:24;;;;;;;10.13;3.17;;;18.70;99.90;;;;;;4972102;28;20570;-67
2023/10/09 10:09:54;;;;;;;5.23;2.83;;;18.80;99.90;;;;;;4971937;28;20470;-66
2023/10/09 10:13:01;;;;;;;7.80;2.90;;;18.90;99.90;;;;;;4972593;28;20488;-66
2023/10/09 10:16:00;;;;;;;9.83;3.87;;;19.10;99.90;;;;;;4971318;28;20522;-67
2023/10/09 10:18:32;;;;;;;7.37;2.63;;;19.20;99.90;;;;;;4971386;28;20458;-67
2023/10/09 10:21:16;;;;;;;7.37;2.57;;;19.30;99.90;;;;;;4972645;28;21001;-67
2023/10/09 10:23:46;;;;;;;6.40;2.23;;;19.40;99.90;;;;;;4972510;28;20901;-66
2023/10/09 10:26:26;;;;;;;5.70;2.57;;;19.50;99.90;;;;;;4972236;28;20851;-66
2023/10/09 10:29:22;;;;;;;10.73;3.67;;;19.60;99.90;;;;;;4972558;28;20850;-66
2023/10/09 10:31:56;;;;;;;7.57;3.00;;;19.60;99.90;;;;;;4972428;28;20875;-66
2023/10/09 10:34:24;;;;;;;6.87;3.10;;;19.80;99.90;;;;;;4971957;28;20464;-67
2023/10/09 10:37:02;;;;;;;6.00;2.63;;;19.90;99.90;;;;;;4972049;28;20512;-67
2023/10/09 10:42:34;;;;;;;6.40;2.90;;;20.20;99.90;;;;;;5070676;27;20579;-66
2023/10/09 10:45:02;;;;;;;8.57;3.37;;;20.30;99.90;;;;;;5068138;28;20470;-66
2023/10/09 10:47:33;;;;;;;6.63;3.03;;;20.50;99.90;;;;;;5067699;28;20557;-66
2023/10/09 10:50:11;;;;;;;6.33;2.57;;;20.50;99.90;;;;;;5068348;28;20474;-66
2023/10/09 10:52:42;;;;;;;7.23;3.23;;;20.60;99.90;;;;;;5068191;28;20500;-66
2023/10/09 10:55:48;;;;;;;6.20;3.10;;;20.60;99.90;;;;;;5064173;28;20532;-66
2023/10/09 10:58:23;;;;;;;16.10;3.30;;;20.60;99.90;;;;;;5063437;28;20544;-65
2023/10/09 11:01:11;;;;;;;8.53;3.10;;;20.50;99.90;;;;;;5068018;28;20482;-66
2023/10/09 11:03:54;;;;;;;7.50;2.80;;;20.50;99.90;;;;;;5067665;28;20490;-65
2023/10/09 11:06:35;;;;;;;6.83;3.47;;;20.40;99.90;;;;;;5064941;28;20950;-66
2023/10/09 11:09:20;;;;;;;4.73;2.37;;;20.40;99.90;;;;;;5067985;28;20454;-65
2023/10/09 11:11:48;;;;;;;5.30;2.67;;;20.30;99.90;;;;;;5068161;28;20470;-66
2023/10/09 11:14:15;;;;;;;6.83;3.13;;;20.30;99.90;;;;;;5067881;28;20982;-65
2023/10/09 11:16:42;;;;;;;6.70;3.17;;;20.30;99.90;;;;;;5069894;28;20550;-66
2023/10/09 11:19:22;;;;;;;6.67;2.57;;;20.30;99.90;;;;;;5068893;28;20458;-65
2023/10/09 11:21:58;;;;;;;6.47;3.00;;;20.40;99.90;;;;;;5065354;28;20537;-65
2023/10/09 11:24:25;;;;;;;5.43;2.10;;;20.50;99.90;;;;;;5067368;28;20524;-65
2023/10/09 11:26:56;;;;;;;7.47;3.23;;;20.60;99.90;;;;;;5067128;28;20462;-65
2023/10/09 11:29:29;;;;;;;10.13;2.80;;;20.70;99.90;;;;;;5067286;28;20511;-66
2023/10/09 11:32:04;;;;;;;6.67;3.10;;;20.90;99.90;;;;;;5067421;28;20510;-66
2023/10/09 11:34:31;;;;;;;6.67;2.90;;;21.00;99.90;;;;;;5066962;28;20844;-66
2023/10/09 11:36:58;;;;;;;6.20;3.03;;;21.00;99.90;;;;;;5066886;28;20466;-66
2023/10/09 11:39:34;;;;;;;8.40;3.23;;;21.00;99.90;;;;;;5066888;28;20467;-65
2023/10/09 11:42:11;;;;;;;8.30;2.77;;;21.00;99.90;;;;;;5066802;28;20864;-65
2023/10/09 11:44:45;;;;;;;6.93;2.70;;;20.90;99.90;;;;;;5066852;28;21198;-65
2023/10/09 11:47:24;;;;;;;9.20;3.73;;;20.80;99.90;;;;;;5062578;28;20536;-66
2023/10/09 11:49:58;;;;;;;4.73;2.60;;;20.80;99.90;;;;;;5067019;28;20525;-65
2023/10/09 11:52:37;;;;;;;7.73;3.00;;;20.70;99.90;;;;;;5060324;28;20506;-65
2023/10/09 11:55:07;;;;;;;8.83;2.77;;;20.60;99.90;;;;;;5053550;28;20885;-65
2023/10/09 11:57:35;;;;;;;5.43;2.70;;;20.60;99.90;;;;;;5053443;28;20490;-65
2023/10/09 12:00:24;;;;;;;5.17;2.73;;;20.60;99.90;;;;;;5053978;28;20837;-65
2023/10/09 12:02:52;;;;;;;6.00;3.17;;;20.60;99.90;;;;;;5052002;28;20865;-65
2023/10/09 12:05:19;;;;;;;4.10;2.43;;;20.50;99.90;;;;;;5053451;28;20897;-65
2023/10/09 12:07:46;;;;;;;3.77;2.37;;;20.40;99.90;;;;;;5050538;28;20471;-65
2023/10/09 12:10:24;;;;;;;6.83;2.90;;;20.40;99.90;;;;;;5053397;28;20461;-65
2023/10/09 12:12:51;;;;;;;10.20;3.20;;;20.40;99.90;;;;;;5053363;28;20464;-65
2023/10/09 12:15:20;;;;;;;4.67;2.90;;;20.40;99.90;;;;;;5053070;28;20470;-65
2023/10/09 12:17:49;;;;;;;4.37;3.00;;;20.40;99.90;;;;;;5050437;28;20464;-65
2023/10/09 12:20:30;;;;;;;4.70;3.00;;;20.40;99.90;;;;;;5053228;28;20460;-65
2023/10/09 12:22:58;;;;;;;7.17;4.13;;;20.40;99.90;;;;;;5053546;28;21027;-66
2023/10/09 12:25:25;;;;;;;5.57;3.10;;;20.40;99.90;;;;;;5052445;28;20513;-65
2023/10/09 12:27:55;;;;;;;5.97;2.97;;;20.40;99.90;;;;;;5052869;28;20825;-66
2023/10/09 12:30:27;;;;;;;9.20;3.80;;;20.40;99.90;;;;;;5052968;28;20558;-67
2023/10/09 12:32:54;;;;;;;8.20;3.27;;;20.50;99.90;;;;;;5052971;28;20536;-67
2023/10/09 12:35:21;;;;;;;8.80;3.43;;;20.60;99.90;;;;;;5052588;28;20554;-67
2023/10/09 12:37:49;;;;;;;3.53;2.73;;;20.80;99.90;;;;;;5052714;28;20831;-65
2023/10/09 12:40:23;;;;;;;5.60;3.00;;;21.20;99.90;;;;;;5052820;28;20482;-65
2023/10/09 12:42:52;;;;;;;4.57;3.00;;;21.60;99.90;;;;;;5052802;28;20455;-65
2023/10/09 12:45:25;;;;;;;4.70;3.30;;;22.00;99.90;;;;;;5052625;28;20452;-65
2023/10/09 12:47:58;;;;;;;5.23;2.87;;;22.30;99.90;;;;;;5050786;28;20455;-65
2023/10/09 12:50:28;;;;;;;5.03;2.50;;;22.50;99.90;;;;;;5052534;28;20475;-67
2023/10/09 12:52:56;;;;;;;5.20;3.73;;;22.70;99.90;;;;;;5052870;28;20459;-65
2023/10/09 12:55:31;;;;;;;5.40;2.87;;;22.80;99.90;;;;;;5052281;28;20456;-65
2023/10/09 12:58:06;;;;;;;5.77;3.43;;;22.90;99.10;;;;;;5052502;28;20974;-65
2023/10/09 13:00:33;;;;;;;4.60;3.67;;;23.10;98.90;;;;;;5052247;28;20479;-65
2023/10/09 13:03:01;;;;;;;5.10;3.13;;;23.20;99.90;;;;;;5052684;28;20463;-65
2023/10/09 13:05:28;;;;;;;5.80;2.97;;;23.20;99.90;;;;;;5051011;28;20464;-65
2023/10/09 13:07:56;;;;;;;6.10;3.43;;;23.20;99.90;;;;;;5052228;28;20466;-65
2023/10/09 13:10:24;;;;;;;11.23;4.73;;;23.10;99.90;;;;;;5052662;28;20460;-65
2023/10/09 13:12:55;;;;;;;4.00;2.63;;;23.00;99.90;;;;;;5050156;28;20464;-65
2023/10/09 13:15:22;;;;;;;5.10;2.77;;;22.90;99.90;;;;;;5052271;28;20459;-65
2023/10/09 13:17:49;;;;;;;6.97;3.43;;;22.90;99.90;;;;;;5051612;28;20460;-65
2023/10/09 13:20:17;;;;;;;5.87;3.60;;;22.90;99.50;;;;;;5052044;28;20948;-65
2023/10/09 13:22:46;;;;;;;6.20;3.33;;;23.10;99.90;;;;;;5051597;28;20479;-65
2023/10/09 13:25:16;;;;;;;8.13;3.67;;;23.20;97.00;;;;;;5051888;28;20464;-65
2023/10/09 13:27:50;;;;;;;6.43;3.70;;;23.30;96.30;;;;;;5051510;28;20994;-65
2023/10/09 13:30:21;;;;;;;6.50;3.57;;;23.30;97.90;;;;;;5052114;28;20555;-65
2023/10/09 13:32:49;;;;;;;5.50;4.37;;;23.40;95.90;;;;;;5051739;28;20463;-65
2023/10/09 13:35:18;;;;;;;5.87;3.17;;;23.40;97.50;;;;;;5051948;28;20467;-65
2023/10/09 13:37:53;;;;;;;4.40;3.50;;;23.60;96.10;;;;;;5051454;28;20460;-65
2023/10/09 13:40:26;;;;;;;9.30;3.50;;;23.80;96.40;;;;;;5051606;28;20888;-65
2023/10/09 13:42:58;;;;;;;6.60;3.30;;;24.10;97.30;;;;;;5051299;28;20927;-65
2023/10/09 13:45:28;;;;;;;4.77;3.77;;;24.30;96.60;;;;;;5051403;28;20471;-65
2023/10/09 13:47:55;;;;;;;4.43;2.90;;;24.50;97.80;;;;;;5049971;28;20948;-65
2023/10/09 13:50:29;;;;;;;5.33;2.80;;;24.70;97.60;;;;;;5051619;28;20465;-65
2023/10/09 13:52:56;;;;;;;5.67;3.80;;;24.90;96.80;;;;;;5051344;28;20451;-65
2023/10/09 13:55:29;;;;;;;4.20;3.67;;;24.90;97.50;;;;;;5051303;28;20455;-66
2023/10/09 13:57:57;;;;;;;4.97;3.50;;;24.90;95.80;;;;;;5049933;28;20456;-66
2023/10/09 14:00:33;;;;;;;3.90;3.07;;;24.90;92.30;;;;;;5051408;28;20460;-66
2023/10/09 14:03:04;;;;;;;7.20;3.43;;;24.90;94.00;;;;;;5051572;28;20494;-67
2023/10/09 14:05:51;;;;;;;6.10;3.30;;;25.20;97.70;;;;;;5050730;28;20955;-66
2023/10/09 14:08:21;;;;;;;5.10;3.27;;;25.30;95.90;;;;;;5045965;28;20880;-66
2023/10/09 14:10:48;;;;;;;8.33;3.13;;;25.40;96.20;;;;;;5050845;28;20967;-66
2023/10/09 14:13:16;;;;;;;6.83;3.43;;;25.40;96.90;;;;;;5051222;28;20940;-67
2023/10/09 14:15:45;;;;;;;5.40;2.87;;;25.40;97.40;;;;;;5050148;28;20551;-66
2023/10/09 14:18:12;;;;;;;6.63;3.43;;;25.40;97.40;;;;;;5051359;28;20463;-67
2023/10/09 14:20:41;;;;;;;6.03;2.80;;;25.30;96.40;;;;;;5050998;28;20889;-67
2023/10/09 14:23:10;;;;;;;3.77;3.13;;;25.20;97.40;;;;;;5044295;28;20535;-68
2023/10/09 14:25:39;;;;;;;5.30;3.00;;;25.10;97.10;;;;;;5050573;28;20452;-68
2023/10/09 14:28:07;;;;;;;5.73;2.97;;;24.90;96.80;;;;;;5043868;28;20496;-67
2023/10/09 14:30:41;;;;;;;6.63;3.30;;;24.60;96.70;;;;;;5050874;28;20566;-66
2023/10/09 14:33:12;;;;;;;3.80;3.10;;;24.40;93.70;;;;;;5044319;28;20511;-66
2023/10/09 14:35:40;;;;;;;4.97;3.03;;;24.40;95.40;;;;;;5050554;28;20459;-67
2023/10/09 14:38:12;;;;;;;7.10;3.57;;;24.30;94.90;;;;;;5043971;28;20459;-66
2023/10/09 14:40:41;;;;;;;6.73;3.70;;;24.30;95.00;;;;;;5050644;28;20927;-66
2023/10/09 14:43:16;;;;;;;5.27;3.67;;;24.20;92.90;;;;;;5043947;28;20491;-66
2023/10/09 14:45:42;;;;;;;5.20;3.40;;;24.10;93.60;;;;;;5050110;28;20462;-67
2023/10/09 14:48:11;;;;;;;6.93;3.77;;;23.90;93.00;;;;;;5050936;28;20554;-67
2023/10/09 14:50:46;;;;;;;5.73;3.17;;;23.80;93.20;;;;;;5050800;28;20502;-67
2023/10/09 14:53:15;;;;;;;4.93;2.97;;;23.60;92.70;;;;;;5044758;28;20517;-66
2023/10/09 14:55:45;;;;;;;5.97;3.60;;;23.50;93.00;;;;;;5050068;28;20456;-66
2023/10/09 14:58:12;;;;;;;4.37;3.40;;;23.50;93.80;;;;;;5051083;28;20464;-67
2023/10/09 15:00:45;;;;;;;4.57;3.20;;;23.40;94.60;;;;;;5050349;28;20509;-66
2023/10/09 15:03:14;;;;;;;6.37;3.50;;;23.20;94.60;;;;;;5050657;28;21011;-67
2023/10/09 15:05:43;;;;;;;4.90;3.40;;;23.10;95.80;;;;;;5050279;28;20547;-67
2023/10/09 15:08:10;;;;;;;4.97;4.00;;;23.10;97.60;;;;;;5050860;28;20998;-66
2023/10/09 15:10:44;;;;;;;6.27;3.47;;;23.00;96.90;;;;;;5050370;28;20529;-66
2023/10/09 15:13:13;;;;;;;4.90;2.93;;;22.90;98.70;;;;;;5043659;28;20971;-66
2023/10/09 15:15:41;;;;;;;4.97;3.27;;;22.80;98.00;;;;;;5049781;28;20976;-66
2023/10/09 15:18:08;;;;;;;4.90;3.50;;;22.80;97.60;;;;;;5043004;28;20459;-66
2023/10/09 15:20:36;;;;;;;9.23;4.00;;;22.80;98.80;;;;;;5050507;28;20868;-67
2023/10/09 15:23:05;;;;;;;7.37;3.57;;;22.70;99.90;;;;;;5050104;28;20488;-66
2023/10/09 15:25:33;;;;;;;4.97;3.30;;;22.70;99.90;;;;;;5050198;28;20886;-66
2023/10/09 15:28:00;;;;;;;4.33;3.00;;;22.60;99.90;;;;;;5051872;28;20840;-66
2023/10/09 15:30:27;;;;;;;4.73;3.67;;;22.50;99.90;;;;;;5054275;28;20466;-66
2023/10/09 15:32:56;;;;;;;4.93;3.53;;;22.40;99.90;;;;;;5053769;28;20543;-66
2023/10/09 15:35:23;;;;;;;6.37;3.83;;;22.20;99.90;;;;;;5053904;28;20459;-66
2023/10/09 15:37:52;;;;;;;5.73;3.30;;;22.10;99.90;;;;;;5053476;28;20460;-66
2023/10/09 15:40:24;;;;;;;7.47;3.10;;;22.00;99.90;;;;;;5053885;28;20459;-66
2023/10/09 15:42:55;;;;;;;5.37;3.10;;;21.90;99.90;;;;;;5053587;28;20483;-66
2023/10/09 15:45:23;;;;;;;6.67;3.60;;;21.70;99.90;;;;;;5053709;28;20463;-66
2023/10/09 15:47:51;;;;;;;4.03;2.83;;;21.60;99.90;;;;;;5053510;28;20974;-66
2023/10/09 15:50:19;;;;;;;5.27;3.20;;;21.50;99.90;;;;;;5054004;28;20521;-67
2023/10/09 15:52:47;;;;;;;5.93;3.70;;;21.30;99.90;;;;;;5053585;28;20948;-67
2023/10/09 15:55:14;;;;;;;6.10;3.50;;;21.20;99.90;;;;;;5053576;28;20470;-66
2023/10/09 15:57:42;;;;;;;4.80;3.50;;;21.10;99.90;;;;;;5053378;28;20463;-66
2023/10/09 16:00:17;;;;;;;5.83;2.83;;;20.90;99.90;;;;;;5046178;28;20459;-67
2023/10/09 16:02:45;;;;;;;4.17;2.83;;;20.80;99.90;;;;;;5053229;28;20487;-66
2023/10/09 16:05:13;;;;;;;6.47;3.40;;;20.80;99.90;;;;;;5053341;28;20463;-66
2023/10/09 16:07:40;;;;;;;4.37;3.37;;;20.60;99.90;;;;;;5053359;28;20968;-67
2023/10/09 16:10:08;;;;;;;5.83;2.83;;;20.50;99.90;;;;;;5053099;28;21100;-66
2023/10/09 16:12:35;;;;;;;6.10;3.47;;;20.40;99.90;;;;;;5053483;28;20526;-66
2023/10/09 16:15:04;;;;;;;3.87;3.00;;;20.40;99.90;;;;;;5055201;28;20469;-66
2023/10/09 16:17:32;;;;;;;5.43;3.60;;;20.30;99.90;;;;;;5053428;28;20499;-67
2023/10/09 16:19:59;;;;;;;7.03;3.50;;;20.20;99.90;;;;;;5052971;28;20464;-66
2023/10/09 16:22:28;;;;;;;6.73;3.30;;;20.10;99.90;;;;;;5053371;28;20541;-66
2023/10/09 16:24:56;;;;;;;6.03;3.47;;;20.00;99.90;;;;;;5052641;28;20456;-66
2023/10/09 16:27:23;;;;;;;5.87;3.90;;;19.90;99.90;;;;;;5052922;28;20953;-66
2023/10/09 16:29:51;;;;;;;6.80;3.53;;;19.80;99.90;;;;;;5052756;28;20467;-66
2023/10/09 16:32:21;;;;;;;5.80;3.60;;;19.70;99.90;;;;;;5053068;28;20540;-66
2023/10/09 16:34:49;;;;;;;6.70;3.30;;;19.60;99.90;;;;;;5052693;28;20463;-66
2023/10/09 16:37:17;;;;;;;6.17;4.00;;;19.50;99.90;;;;;;5052694;28;20463;-66
2023/10/09 16:39:44;;;;;;;7.93;3.37;;;19.40;99.90;;;;;;5050717;28;21025;-66
2023/10/09 16:42:13;;;;;;;5.17;3.77;;;19.30;99.90;;;;;;5049904;28;20486;-66
2023/10/09 16:44:40;;;;;;;10.77;3.60;;;19.20;99.90;;;;;;5050337;28;21013;-66
2023/10/09 16:47:08;;;;;;;5.60;3.00;;;19.10;99.90;;;;;;5049415;28;20468;-66
2023/10/09 16:49:38;;;;;;;6.93;3.30;;;19.00;99.90;;;;;;5050518;28;20869;-66
2023/10/09 16:52:10;;;;;;;5.40;2.97;;;18.90;99.90;;;;;;5049840;28;20548;-67
2023/10/09 16:54:37;;;;;;;10.70;4.37;;;18.90;99.90;;;;;;5049580;28;20479;-66
2023/10/09 16:57:08;;;;;;;6.57;4.10;;;18.70;99.90;;;;;;5049393;28;20463;-66
2023/10/09 16:59:35;;;;;;;6.97;3.40;;;18.60;99.90;;;;;;5049760;28;20839;-66
2023/10/09 17:02:06;;;;;;;5.90;3.27;;;18.60;99.90;;;;;;5049421;28;20494;-66
2023/10/09 17:04:33;;;;;;;6.73;3.53;;;18.50;99.90;;;;;;5049965;28;20470;-66
2023/10/09 17:07:04;;;;;;;6.37;3.83;;;18.40;99.90;;;;;;5049267;28;20962;-66
2023/10/09 17:09:34;;;;;;;3.77;3.13;;;18.30;99.90;;;;;;5049721;28;20480;-67
2023/10/09 17:12:03;;;;;;;9.40;3.70;;;18.20;99.90;;;;;;5049317;28;20490;-66
2023/10/09 17:14:34;;;;;;;6.83;3.27;;;18.20;99.90;;;;;;5049948;28;20532;-66
2023/10/09 17:17:00;;;;;;;4.23;2.90;;;18.10;99.90;;;;;;5048839;28;20488;-66
2023/10/09 17:19:28;;;;;;;5.30;3.40;;;18.00;99.90;;;;;;5049636;28;20846;-66
2023/10/09 17:21:56;;;;;;;10.23;3.57;;;17.90;99.90;;;;;;5046463;28;20487;-66
2023/10/09 17:24:24;;;;;;;6.40;3.13;;;17.80;99.90;;;;;;5047256;28;20469;-66
2023/10/09 17:26:53;;;;;;;3.57;2.70;;;17.70;99.90;;;;;;5048251;28;20564;-66
2023/10/09 17:29:20;;;;;;;4.47;2.70;;;17.70;99.90;;;;;;5048804;28;20485;-66
2023/10/09 17:31:46;;;;;;;4.83;3.03;;;17.60;99.90;;;;;;5048606;28;20487;-66
2023/10/09 17:34:17;;;;;;;7.37;3.37;;;17.50;99.90;;;;;;5048768;28;20469;-67
2023/10/09 17:36:44;;;;;;;9.60;3.20;;;17.40;99.90;;;;;;5048936;28;20465;-67